Time;durP1;ratioP1;P1;durP2;ratioP2;P2;SDS_P1;SDS_P2;PMS_P1;PMS_P2;Temp;Humidity;BMP_temperature;BMP_pressure;BME280_temperature;BME280_humidity;BME280_pressure;Samples;Min_cycle;Max_cycle;Signal;HPM_P1;HPM_P2
2021/10/11 00:02:04;;;;;;;12.80;7.30;;;;;;;4.64;100.00;101503.22;5266441;28;20016;-79
2021/10/11 00:04:34;;;;;;;12.93;7.15;;;;;;;4.84;100.00;101503.28;5264773;28;20016;-79
2021/10/11 00:07:06;;;;;;;12.38;7.30;;;;;;;4.65;100.00;101504.94;5265065;28;20047;-78
2021/10/11 00:09:36;;;;;;;14.13;7.00;;;;;;;4.55;100.00;101502.34;5264297;28;20024;-78
2021/10/11 00:12:06;;;;;;;12.27;7.45;;;;;;;4.52;100.00;101504.91;5247175;28;20027;-78
2021/10/11 00:14:37;;;;;;;18.10;7.00;;;;;;;4.50;100.00;101507.47;5246881;28;20019;-79
2021/10/11 00:17:07;;;;;;;14.43;6.93;;;;;;;4.67;100.00;101505.81;5247299;28;20026;-79
2021/10/11 00:19:38;;;;;;;12.68;7.00;;;;;;;4.69;100.00;101504.13;5247678;28;20023;-79
2021/10/11 00:22:09;;;;;;;13.32;6.90;;;;;;;4.75;100.00;101506.72;5247841;28;20111;-78
2021/10/11 00:24:39;;;;;;;11.05;6.43;;;;;;;4.74;100.00;101511.88;5265208;28;20639;-78
2021/10/11 00:27:10;;;;;;;11.23;6.90;;;;;;;4.84;100.00;101513.66;5266283;28;20445;-79
2021/10/11 00:29:40;;;;;;;12.88;7.38;;;;;;;4.92;100.00;101510.22;5265599;28;20024;-79
2021/10/11 00:32:10;;;;;;;12.65;6.82;;;;;;;4.91;100.00;101512.78;5247811;28;20058;-79
2021/10/11 00:34:41;;;;;;;9.82;6.32;;;;;;;4.99;100.00;101514.53;5245209;28;20020;-77
2021/10/11 00:37:11;;;;;;;13.88;7.07;;;;;;;5.06;100.00;101503.34;5263456;28;20020;-77
2021/10/11 00:39:41;;;;;;;11.70;6.95;;;;;;;4.84;100.00;101511.06;5246223;28;20056;-77
2021/10/11 00:42:12;;;;;;;12.00;6.57;;;;;;;4.98;100.00;101510.22;5263974;28;20114;-77
2021/10/11 00:44:42;;;;;;;10.75;6.60;;;;;;;5.02;100.00;101509.38;5263093;28;20103;-77
2021/10/11 00:47:12;;;;;;;11.13;6.10;;;;;;;5.10;100.00;101509.38;5265792;28;20020;-77
2021/10/11 00:49:43;;;;;;;11.63;6.85;;;;;;;5.25;100.00;101502.50;5267864;28;20028;-78
2021/10/11 00:52:13;;;;;;;10.80;6.65;;;;;;;5.16;100.00;101499.03;5263652;28;20020;-77
2021/10/11 00:54:44;;;;;;;13.52;6.15;;;;;;;4.90;100.00;101483.47;5260635;28;20506;-77
2021/10/11 00:57:14;;;;;;;11.38;6.13;;;;;;;4.88;100.00;101495.53;5265350;28;20633;-77
2021/10/11 00:59:44;;;;;;;11.23;6.35;;;;;;;4.76;100.00;101489.44;5266896;28;20032;-77
2021/10/11 01:02:16;;;;;;;10.85;6.82;;;;;;;4.85;100.00;101494.66;5255182;28;20020;-77
2021/10/11 01:04:46;;;;;;;10.75;6.55;;;;;;;4.93;100.00;101483.44;5266080;28;20028;-77
2021/10/11 01:07:16;;;;;;;11.23;6.18;;;;;;;4.89;100.00;101481.72;5267790;28;20020;-77
2021/10/11 01:09:46;;;;;;;12.50;6.72;;;;;;;4.80;100.00;101470.50;5267541;28;20392;-77
2021/10/11 01:12:17;;;;;;;12.77;7.25;;;;;;;4.91;100.00;101467.06;5267029;28;20541;-77
2021/10/11 01:14:47;;;;;;;12.93;6.57;;;;;;;4.94;100.00;101464.47;5267346;28;20511;-77
2021/10/11 01:17:18;;;;;;;11.73;6.07;;;;;;;4.89;100.00;101473.97;5266920;28;20035;-77
2021/10/11 01:19:50;;;;;;;9.82;5.80;;;;;;;4.99;100.00;101473.09;5266845;28;20082;-77
2021/10/11 01:22:20;;;;;;;9.73;5.70;;;;;;;5.13;100.00;101475.72;5266786;28;20020;-77
2021/10/11 01:24:51;;;;;;;11.38;6.18;;;;;;;5.27;100.00;101474.84;5266754;28;20111;-77
2021/10/11 01:27:28;;;;;;;11.88;6.00;;;;;;;5.34;100.00;101466.19;5248777;28;20055;-77
2021/10/11 01:29:58;;;;;;;12.27;5.90;;;;;;;5.30;100.00;101467.06;5265666;28;20031;-77
2021/10/11 01:32:28;;;;;;;10.75;6.10;;;;;;;5.21;100.00;101473.97;5272356;28;20024;-78
2021/10/11 01:34:59;;;;;;;9.88;5.55;;;;;;;5.27;100.00;101468.78;5268177;28;20070;-77
2021/10/11 01:37:29;;;;;;;9.07;5.40;;;;;;;5.48;100.00;101459.28;5267082;28;20016;-77
2021/10/11 01:39:59;;;;;;;9.07;5.22;;;;;;;5.44;100.00;101457.56;5267072;28;20024;-77
2021/10/11 01:42:30;;;;;;;11.32;6.05;;;;;;;5.39;100.00;101454.13;5267281;28;20031;-77
2021/10/11 01:45:00;;;;;;;10.82;6.38;;;;;;;5.21;100.00;101461.91;5266557;28;20112;-77
2021/10/11 01:47:31;;;;;;;10.63;6.03;;;;;;;5.14;100.00;101459.31;5265719;28;20065;-77
2021/10/11 01:50:03;;;;;;;11.65;6.80;;;;;;;5.22;100.00;101454.97;5248003;28;20031;-77
2021/10/11 01:52:35;;;;;;;12.32;6.15;;;;;;;5.41;100.00;101453.25;5265590;28;20066;-77
2021/10/11 01:55:08;;;;;;;10.65;6.03;;;;;;;5.51;100.00;101456.69;5265575;28;20020;-78
2021/10/11 01:57:38;;;;;;;11.20;6.43;;;;;;;5.63;100.00;101448.91;5266398;28;20024;-77
2021/10/11 02:00:09;;;;;;;10.85;5.95;;;;;;;5.72;100.00;101443.72;5248968;28;20142;-77
2021/10/11 02:02:39;;;;;;;10.88;5.90;;;;;;;5.65;100.00;101449.75;5267708;28;20128;-77
2021/10/11 02:05:10;;;;;;;10.65;6.22;;;;;;;5.64;100.00;101441.13;5274847;28;20694;-77
2021/10/11 02:07:40;;;;;;;9.45;5.95;;;;;;;5.56;100.00;101427.31;5278627;28;20156;-77
2021/10/11 02:10:11;;;;;;;10.55;6.18;;;;;;;5.51;100.00;101426.44;5256730;28;20040;-77
2021/10/11 02:12:41;;;;;;;9.30;5.68;;;;;;;5.68;100.00;101424.69;5266399;28;20028;-77
2021/10/11 02:15:11;;;;;;;9.35;5.82;;;;;;;5.69;100.00;101409.97;5265672;28;20032;-77
2021/10/11 02:17:42;;;;;;;11.82;6.30;;;;;;;5.78;100.00;101412.56;5265935;28;20058;-78
2021/10/11 02:20:12;;;;;;;8.90;5.50;;;;;;;5.83;100.00;101416.03;5266534;28;20016;-77
2021/10/11 02:22:42;;;;;;;9.63;5.88;;;;;;;5.88;100.00;101419.50;5247793;28;20035;-77
2021/10/11 02:25:13;;;;;;;13.88;5.75;;;;;;;5.93;100.00;101420.34;5247868;28;20031;-77
2021/10/11 02:27:44;;;;;;;10.00;5.90;;;;;;;6.05;100.00;101418.56;5244803;28;20038;-77
2021/10/11 02:30:14;;;;;;;11.57;5.90;;;;;;;6.15;100.00;101404.69;5272161;28;20028;-77
2021/10/11 02:32:45;;;;;;;11.40;5.97;;;;;;;6.21;100.00;101402.03;5251395;28;20032;-78
2021/10/11 02:35:16;;;;;;;10.18;6.05;;;;;;;6.22;100.00;101413.31;5247765;28;20479;-77
2021/10/11 02:37:47;;;;;;;12.95;6.32;;;;;;;6.34;100.00;101416.69;5265699;28;20055;-77
2021/10/11 02:40:17;;;;;;;10.00;5.68;;;;;;;6.31;100.00;101419.31;5265580;28;20091;-77
2021/10/11 02:42:48;;;;;;;9.48;6.00;;;;;;;6.39;100.00;101408.88;5265902;28;20159;-77
2021/10/11 02:45:18;;;;;;;12.65;6.30;;;;;;;6.47;100.00;101413.16;5265210;28;20081;-78
2021/10/11 02:47:48;;;;;;;9.98;5.50;;;;;;;6.58;100.00;101410.50;5264997;28;20043;-77
2021/10/11 02:50:20;;;;;;;12.48;6.25;;;;;;;6.68;100.00;101409.56;5264410;28;20033;-78
2021/10/11 02:52:50;;;;;;;12.00;6.25;;;;;;;6.72;100.00;101408.66;5265329;28;20028;-78
2021/10/11 02:55:20;;;;;;;10.75;5.78;;;;;;;6.81;100.00;101412.09;5265449;28;20078;-78
2021/10/11 02:57:51;;;;;;;11.32;6.60;;;;;;;6.94;100.00;101399.88;5267530;28;20027;-78
2021/10/11 03:00:21;;;;;;;10.48;5.63;;;;;;;7.04;100.00;101391.09;5247484;28;20032;-78
2021/10/11 03:02:51;;;;;;;10.02;5.93;;;;;;;7.14;100.00;101387.56;5267200;28;20035;-78
2021/10/11 03:05:22;;;;;;;11.35;6.53;;;;;;;7.20;100.00;101384.91;5265039;28;20055;-78
2021/10/11 03:07:52;;;;;;;11.50;6.80;;;;;;;7.22;100.00;101382.25;5265164;28;20044;-78
2021/10/11 03:10:22;;;;;;;10.70;6.22;;;;;;;7.30;100.00;101379.59;5264663;28;20024;-78
2021/10/11 03:12:53;;;;;;;11.55;6.68;;;;;;;7.37;100.00;101376.91;5265152;28;20372;-77
2021/10/11 03:15:23;;;;;;;15.02;7.22;;;;;;;7.46;100.00;101381.16;5264907;28;20020;-78
2021/10/11 03:17:53;;;;;;;12.50;6.57;;;;;;;7.47;100.00;101373.38;5265609;28;20111;-78
2021/10/11 03:20:23;;;;;;;11.73;6.28;;;;;;;7.50;100.00;101380.28;5265362;28;20062;-77
2021/10/11 03:22:54;;;;;;;12.88;6.68;;;;;;;7.56;100.00;101373.25;5265731;28;20035;-78
2021/10/11 03:25:24;;;;;;;12.10;7.55;;;;;;;7.58;100.00;101362.84;5264928;28;20666;-78
2021/10/11 03:27:54;;;;;;;13.00;7.65;;;;;;;7.60;100.00;101374.97;5268866;28;20027;-78
2021/10/11 03:30:25;;;;;;;13.63;7.70;;;;;;;7.72;100.00;101373.97;5265912;28;20094;-78
2021/10/11 03:32:55;;;;;;;16.90;8.40;;;;;;;7.64;100.00;101379.25;5265174;28;20023;-78
2021/10/11 03:35:26;;;;;;;15.93;9.68;;;;;;;7.74;100.00;101370.44;5264527;28;20028;-78
2021/10/11 03:37:56;;;;;;;16.80;9.27;;;;;;;7.79;100.00;101373.88;5264441;28;20040;-78
2021/10/11 03:40:26;;;;;;;15.15;8.95;;;;;;;7.98;100.00;101370.16;5269186;28;20092;-79
2021/10/11 03:42:57;;;;;;;20.95;9.15;;;;;;;8.01;100.00;101374.50;5250916;28;20565;-79
2021/10/11 03:45:27;;;;;;;20.48;9.07;;;;;;;8.06;100.00;101375.28;5269168;28;20085;-79
2021/10/11 03:47:57;;;;;;;19.77;10.02;;;;;;;8.14;100.00;101368.22;5252766;28;20202;-79
2021/10/11 03:50:27;;;;;;;17.20;9.55;;;;;;;8.17;100.00;101370.78;5252872;28;20048;-79
2021/10/11 03:52:58;;;;;;;22.33;10.75;;;;;;;8.24;100.00;101375.91;5271112;28;20483;-79
2021/10/11 03:55:28;;;;;;;20.17;10.95;;;;;;;8.29;100.00;101368.06;5252049;28;20111;-79
2021/10/11 03:57:58;;;;;;;19.98;10.73;;;;;;;8.31;100.00;101361.94;5272208;28;20023;-79
2021/10/11 04:00:29;;;;;;;22.10;10.88;;;;;;;8.36;100.00;101354.09;5276805;28;20402;-79
2021/10/11 04:03:02;;;;;;;20.00;11.00;;;;;;;8.41;100.00;101360.91;5250967;28;20034;-80
2021/10/11 04:05:33;;;;;;;22.60;12.13;;;;;;;8.43;100.00;101356.59;5250499;28;20025;-79
2021/10/11 04:08:13;;;;;;;20.20;11.80;;;;;;;8.46;100.00;101364.34;5251881;28;20050;-80
2021/10/11 04:11:25;;;;;;;21.90;11.45;;;;;;;8.57;100.00;101354.59;5251714;28;20067;-80
2021/10/11 04:13:38;;;;;;;22.40;12.48;;;;;;;8.57;100.00;101361.56;5259016;28;20039;-79
2021/10/11 04:16:08;;;;;;;19.65;11.60;;;;;;;8.61;100.00;101361.53;5268564;28;20024;-79
2021/10/11 04:18:39;;;;;;;21.52;12.20;;;;;;;8.62;100.00;101360.63;5270121;28;20028;-79
2021/10/11 04:21:10;;;;;;;21.58;13.10;;;;;;;8.66;100.00;101362.31;5252850;28;20016;-80
2021/10/11 04:23:40;;;;;;;25.10;12.35;;;;;;;8.64;100.00;101353.66;5274057;28;20024;-80
2021/10/11 04:26:12;;;;;;;24.35;12.85;;;;;;;8.68;100.00;101363.13;5274829;28;20497;-78
2021/10/11 04:28:42;;;;;;;23.80;13.32;;;;;;;8.76;100.00;101361.25;5274949;28;20107;-80
2021/10/11 04:31:12;;;;;;;28.00;13.93;;;;;;;8.79;100.00;101353.41;5256492;28;20080;-79
2021/10/11 04:33:43;;;;;;;25.25;14.30;;;;;;;8.77;100.00;101355.19;5254378;28;20493;-78
2021/10/11 04:36:13;;;;;;;25.02;14.40;;;;;;;8.72;100.00;101354.38;5255914;28;20019;-79
2021/10/11 04:38:43;;;;;;;28.85;15.52;;;;;;;8.73;100.00;101353.50;5254955;28;20036;-78
2021/10/11 04:41:13;;;;;;;26.33;14.57;;;;;;;8.78;100.00;101356.03;5255486;28;20497;-78
2021/10/11 04:43:44;;;;;;;28.02;15.13;;;;;;;9.03;100.00;101357.38;5253932;28;20039;-79
2021/10/11 04:46:14;;;;;;;31.50;16.35;;;;;;;8.94;100.00;101349.69;5254451;28;20381;-78
2021/10/11 04:48:44;;;;;;;31.98;16.50;;;;;;;9.05;100.00;101348.63;5272660;28;20032;-79
2021/10/11 04:51:15;;;;;;;31.90;16.73;;;;;;;8.99;100.00;101348.72;5272578;28;20027;-79
2021/10/11 04:53:45;;;;;;;33.22;17.40;;;;;;;8.99;100.00;101346.13;5272668;28;20101;-78
2021/10/11 04:56:15;;;;;;;34.65;18.23;;;;;;;9.00;100.00;101341.75;5272481;28;20020;-79
2021/10/11 04:58:46;;;;;;;31.90;17.98;;;;;;;8.94;100.00;101345.34;5273739;28;20475;-78
2021/10/11 05:01:17;;;;;;;32.35;18.20;;;;;;;8.96;100.00;101351.41;5258861;28;20015;-79
2021/10/11 05:03:47;;;;;;;32.67;17.63;;;;;;;8.98;100.00;101343.53;5257461;28;20156;-78
2021/10/11 05:06:17;;;;;;;32.97;18.08;;;;;;;8.90;100.00;101342.81;5272710;28;20024;-79
2021/10/11 05:08:48;;;;;;;35.88;18.83;;;;;;;9.04;100.00;101335.63;5273110;28;20024;-79
2021/10/11 05:11:18;;;;;;;35.50;18.42;;;;;;;9.03;100.00;101342.56;5271878;28;20020;-79
2021/10/11 05:13:48;;;;;;;36.10;18.27;;;;;;;9.01;100.00;101336.53;5253978;28;20158;-78
2021/10/11 05:16:18;;;;;;;37.15;18.70;;;;;;;9.09;100.00;101332.03;5253816;28;20495;-78
2021/10/11 05:18:49;;;;;;;33.15;18.42;;;;;;;9.02;100.00;101334.75;5273140;28;20084;-79
2021/10/11 05:21:21;;;;;;;35.67;18.55;;;;;;;9.04;100.00;101341.69;5254930;28;20104;-79
2021/10/11 05:23:51;;;;;;;35.08;19.33;;;;;;;9.06;100.00;101326.03;5272059;28;20031;-79
2021/10/11 05:26:21;;;;;;;35.45;18.40;;;;;;;9.14;100.00;101330.22;5272793;28;20032;-80
2021/10/11 05:28:52;;;;;;;38.65;19.58;;;;;;;9.20;100.00;101336.19;5273357;28;20395;-79
2021/10/11 05:31:22;;;;;;;38.33;18.85;;;;;;;9.30;100.00;101336.88;5253658;28;20054;-80
2021/10/11 05:33:52;;;;;;;36.67;18.65;;;;;;;9.11;100.00;101347.66;5268853;28;20040;-80
2021/10/11 05:36:23;;;;;;;37.65;19.30;;;;;;;9.21;100.00;101342.25;5272831;28;20098;-81
2021/10/11 05:38:54;;;;;;;34.20;18.80;;;;;;;9.26;100.00;101354.31;5256469;28;20046;-80
2021/10/11 05:41:24;;;;;;;37.40;19.00;;;;;;;9.07;100.00;101354.66;5272955;28;20075;-80
2021/10/11 05:43:54;;;;;;;36.17;19.55;;;;;;;9.06;100.00;101358.16;5254525;28;20020;-80
2021/10/11 05:46:25;;;;;;;36.90;19.05;;;;;;;9.25;100.00;101367.38;5254484;28;20031;-80
2021/10/11 05:48:55;;;;;;;38.38;19.95;;;;;;;9.15;100.00;101366.69;5259507;28;20023;-80
2021/10/11 05:51:25;;;;;;;36.33;19.40;;;;;;;9.07;100.00;101372.06;5279005;28;20024;-80
2021/10/11 05:53:56;;;;;;;38.90;19.70;;;;;;;9.24;100.00;101381.31;5256731;28;20035;-80
2021/10/11 05:56:26;;;;;;;36.65;19.88;;;;;;;9.22;100.00;101375.25;5275475;28;20050;-80
2021/10/11 05:58:56;;;;;;;34.97;19.15;;;;;;;9.19;100.00;101376.19;5277174;28;20062;-80
2021/10/11 06:01:27;;;;;;;34.22;19.20;;;;;;;9.25;100.00;101375.22;5274681;28;20386;-80
2021/10/11 06:03:57;;;;;;;39.85;20.63;;;;;;;9.33;100.00;101381.16;5273544;28;20067;-80
2021/10/11 06:06:27;;;;;;;40.33;20.90;;;;;;;9.24;100.00;101386.53;5256340;28;20028;-80
2021/10/11 06:08:57;;;;;;;42.10;21.40;;;;;;;9.38;100.00;101392.38;5275025;28;20027;-80
2021/10/11 06:11:28;;;;;;;42.72;21.83;;;;;;;9.26;100.00;101384.75;5254880;28;20444;-80
2021/10/11 06:13:59;;;;;;;41.92;21.75;;;;;;;9.38;100.00;101387.16;5249960;28;20050;-80
2021/10/11 06:16:29;;;;;;;41.83;21.45;;;;;;;9.44;100.00;101384.41;5253888;28;20024;-80
2021/10/11 06:18:59;;;;;;;39.60;20.73;;;;;;;9.51;100.00;101383.44;5274126;28;20151;-80
2021/10/11 06:21:30;;;;;;;43.03;22.25;;;;;;;9.60;100.00;101383.25;5272873;28;20039;-80
2021/10/11 06:24:00;;;;;;;41.28;21.83;;;;;;;9.42;100.00;101383.59;5273236;28;20051;-80
2021/10/11 06:26:31;;;;;;;42.85;22.08;;;;;;;9.43;100.00;101385.31;5254033;28;20049;-80
2021/10/11 06:29:01;;;;;;;41.30;22.25;;;;;;;9.43;100.00;101387.91;5274576;28;20411;-80
2021/10/11 06:31:32;;;;;;;44.95;22.02;;;;;;;9.57;100.00;101386.81;5272057;28;20027;-80
2021/10/11 06:34:02;;;;;;;43.70;22.45;;;;;;;9.60;100.00;101394.56;5252988;28;20651;-81
2021/10/11 06:36:35;;;;;;;44.15;22.55;;;;;;;9.57;100.00;101399.84;5271496;28;20049;-81
2021/10/11 06:39:05;;;;;;;43.75;22.52;;;;;;;9.71;100.00;101404.81;5253480;28;20460;-81
2021/10/11 06:41:36;;;;;;;45.97;23.17;;;;;;;9.85;100.00;101408.88;5254599;28;20039;-81
2021/10/11 06:44:06;;;;;;;51.05;23.77;;;;;;;9.87;100.00;101422.78;5271854;28;20511;-81
2021/10/11 06:46:36;;;;;;;44.22;23.33;;;;;;;9.83;100.00;101415.03;5272506;28;20031;-81
2021/10/11 06:49:06;;;;;;;43.95;23.05;;;;;;;9.87;100.00;101412.34;5254320;28;20020;-81
2021/10/11 06:51:37;;;;;;;50.45;23.73;;;;;;;10.02;100.00;101421.63;5254305;28;20111;-81
2021/10/11 06:54:07;;;;;;;47.83;23.25;;;;;;;9.98;100.00;101422.56;5272939;28;20553;-81
2021/10/11 06:56:37;;;;;;;46.78;23.77;;;;;;;10.11;100.00;101421.44;5254066;28;20024;-81
2021/10/11 06:59:07;;;;;;;49.08;24.35;;;;;;;10.13;100.00;101417.91;5277410;28;20054;-80
2021/10/11 07:01:38;;;;;;;52.88;24.92;;;;;;;10.13;100.00;101424.91;5273087;28;20031;-81
2021/10/11 07:04:09;;;;;;;51.00;24.52;;;;;;;10.21;100.00;101416.03;5271792;28;20035;-81
2021/10/11 07:06:41;;;;;;;48.25;23.58;;;;;;;10.31;100.00;101414.09;5255688;28;20020;-81
2021/10/11 07:09:11;;;;;;;51.63;24.25;;;;;;;10.29;100.00;101408.00;5254281;28;20019;-81
2021/10/11 07:11:42;;;;;;;51.47;25.40;;;;;;;10.29;100.00;101406.25;5272975;28;20107;-81
2021/10/11 07:14:12;;;;;;;52.22;24.52;;;;;;;10.60;100.00;101414.28;5255459;28;20032;-81
2021/10/11 07:16:45;;;;;;;54.85;25.13;;;;;;;10.65;100.00;101420.28;5273743;28;20036;-81
2021/10/11 07:19:15;;;;;;;56.75;25.27;;;;;;;10.62;100.00;101428.19;5255314;28;20028;-81
2021/10/11 07:21:46;;;;;;;54.22;25.60;;;;;;;10.66;100.00;101429.84;5258740;28;20033;-81
2021/10/11 07:24:18;;;;;;;58.55;27.13;;;;;;;10.62;100.00;101436.03;5255727;28;20070;-81
2021/10/11 07:26:48;;;;;;;56.08;26.05;;;;;;;10.58;100.00;101434.38;5252248;28;20224;-81
2021/10/11 07:29:18;;;;;;;52.97;25.75;;;;;;;10.62;100.00;101431.66;5271012;28;20028;-81
2021/10/11 07:31:49;;;;;;;59.28;26.17;;;;;;;10.77;100.00;101438.31;5253048;28;20644;-81
2021/10/11 07:34:19;;;;;;;56.10;25.40;;;;;;;10.71;100.00;101435.84;5268365;28;20022;-81
2021/10/11 07:36:49;;;;;;;58.47;26.52;;;;;;;10.76;100.00;101440.06;5254231;28;20028;-81
2021/10/11 07:39:20;;;;;;;57.85;27.42;;;;;;;10.82;100.00;101447.75;5254983;28;20661;-81
2021/10/11 07:41:50;;;;;;;54.03;25.02;;;;;;;10.83;100.00;101446.03;5255178;28;20407;-81
2021/10/11 07:44:22;;;;;;;53.80;25.23;;;;;;;10.76;100.00;101434.84;5253134;28;20076;-81
2021/10/11 07:46:54;;;;;;;51.80;24.75;;;;;;;10.85;100.00;101442.47;5271174;28;20384;-81
2021/10/11 07:49:24;;;;;;;58.40;25.95;;;;;;;10.91;100.00;101434.50;5253782;28;20494;-81
2021/10/11 07:51:55;;;;;;;58.45;26.10;;;;;;;10.93;100.00;101427.47;5253418;28;20034;-81
2021/10/11 07:54:25;;;;;;;55.72;24.45;;;;;;;11.03;100.00;101428.94;5253166;28;20031;-81
2021/10/11 07:56:57;;;;;;;54.95;24.65;;;;;;;11.09;100.00;101440.13;5256581;28;20047;-81
2021/10/11 07:59:29;;;;;;;55.80;24.80;;;;;;;11.12;100.00;101429.59;5273822;28;20368;-81
2021/10/11 08:01:59;;;;;;;60.05;25.33;;;;;;;11.06;100.00;101429.75;5253447;28;20032;-81
2021/10/11 08:04:29;;;;;;;50.97;24.85;;;;;;;10.99;100.00;101431.72;5253131;28;20034;-81
2021/10/11 08:07:00;;;;;;;59.38;24.75;;;;;;;11.08;100.00;101433.19;5272070;28;20041;-81
2021/10/11 08:09:30;;;;;;;57.33;25.27;;;;;;;11.23;100.00;101438.06;5271585;28;20119;-82
2021/10/11 08:12:00;;;;;;;52.17;24.27;;;;;;;11.38;100.00;101448.16;5271681;28;20031;-81
2021/10/11 08:14:31;;;;;;;56.95;25.25;;;;;;;11.32;100.00;101447.44;5271871;28;20411;-81
2021/10/11 08:17:01;;;;;;;53.65;24.65;;;;;;;11.36;100.00;101449.94;5255136;28;20665;-81
2021/10/11 08:19:31;;;;;;;56.28;25.17;;;;;;;11.35;100.00;101453.47;5274462;28;20020;-81
2021/10/11 08:22:02;;;;;;;57.35;25.05;;;;;;;11.32;100.00;101452.66;5255677;28;20054;-82
2021/10/11 08:24:33;;;;;;;57.22;24.80;;;;;;;11.24;100.00;101447.63;5253410;28;20028;-81
2021/10/11 08:27:03;;;;;;;49.42;23.17;;;;;;;11.29;100.00;101453.59;5272680;28;20026;-81
2021/10/11 08:29:33;;;;;;;52.65;24.83;;;;;;;11.40;100.00;101455.94;5253384;28;20510;-81
2021/10/11 08:32:04;;;;;;;51.35;24.17;;;;;;;11.37;100.00;101456.91;5271583;28;20047;-81
2021/10/11 08:34:34;;;;;;;49.83;24.05;;;;;;;11.34;100.00;101454.38;5256790;28;20024;-82
2021/10/11 08:37:04;;;;;;;50.08;23.85;;;;;;;11.30;100.00;101460.53;5277384;28;20081;-81
2021/10/11 08:39:36;;;;;;;47.83;23.17;;;;;;;11.28;100.00;101459.72;5273657;28;20032;-81
2021/10/11 08:42:07;;;;;;;48.53;24.63;;;;;;;11.31;100.00;101464.88;5254947;28;20028;-81
2021/10/11 08:44:38;;;;;;;49.25;23.17;;;;;;;11.35;100.00;101466.56;5253663;28;20104;-82
2021/10/11 08:47:10;;;;;;;45.65;23.30;;;;;;;11.41;100.00;101458.53;5268489;28;20024;-81
2021/10/11 08:49:46;;;;;;;45.92;23.80;;;;;;;11.32;100.00;101468.38;5269177;28;20020;-81
2021/10/11 08:52:23;;;;;;;46.80;23.42;;;;;;;11.31;100.00;101464.03;5250159;28;20024;-81
2021/10/11 08:54:54;;;;;;;46.05;22.42;;;;;;;11.40;100.00;101467.28;5254927;28;20039;-81
2021/10/11 08:57:25;;;;;;;46.50;23.27;;;;;;;11.52;100.00;101467.00;5258146;28;20023;-82
2021/10/11 09:00:16;;;;;;;46.60;23.48;;;;;;;11.70;100.00;101461.31;5270455;28;20024;-82
2021/10/11 09:02:51;;;;;;;45.67;22.42;;;;;;;11.88;100.00;101460.81;5255151;28;20028;-81
2021/10/11 09:05:52;;;;;;;42.85;22.63;;;;;;;11.89;100.00;101462.53;5271099;28;20024;-82
2021/10/11 09:08:23;;;;;;;42.65;22.70;;;;;;;11.90;100.00;101459.03;5252338;28;20080;-81
2021/10/11 09:10:59;;;;;;;39.50;21.75;;;;;;;12.15;100.00;101469.69;5276319;28;20039;-82
2021/10/11 09:13:31;;;;;;;41.65;20.85;;;;;;;12.15;100.00;101465.31;5274431;28;20023;-81
2021/10/11 09:16:03;;;;;;;40.05;20.17;;;;;;;12.21;100.00;101465.16;5256478;28;20029;-81
2021/10/11 09:18:35;;;;;;;36.67;20.17;;;;;;;12.33;100.00;101449.06;5275493;28;20028;-82
2021/10/11 09:21:07;;;;;;;37.10;19.13;;;;;;;12.72;100.00;101447.03;5257304;28;20020;-82
2021/10/11 09:23:37;;;;;;;35.88;18.50;;;;;;;12.95;100.00;101455.94;5257476;28;20050;-82
2021/10/11 09:26:16;;;;;;;31.08;17.50;;;;;;;13.12;100.00;101454.53;5256516;28;20395;-82
2021/10/11 09:28:55;;;;;;;27.73;16.20;;;;;;;13.25;100.00;101445.31;5260488;28;20023;-81
2021/10/11 09:31:42;;;;;;;27.77;15.82;;;;;;;13.30;100.00;101453.94;5253677;28;20414;-82
2021/10/11 09:34:19;;;;;;;28.35;15.43;;;;;;;13.47;100.00;101450.72;5251495;28;20039;-82
2021/10/11 09:37:04;;;;;;;25.35;14.00;;;;;;;13.10;100.00;101455.47;5257709;28;20127;-82
2021/10/11 09:39:37;;;;;;;25.02;13.50;;;;;;;12.97;100.00;101446.25;5276031;28;20045;-81
2021/10/11 09:42:14;;;;;;;23.02;13.93;;;;;;;12.87;100.00;101447.44;5255273;28;20024;-82
2021/10/11 09:44:52;;;;;;;26.45;14.65;;;;;;;13.16;100.00;101444.75;5254588;28;20035;-81
2021/10/11 09:47:32;;;;;;;27.23;15.00;;;;;;;13.57;100.00;101436.41;5275744;28;20031;-82
2021/10/11 09:50:11;;;;;;;28.08;14.32;;;;;;;13.88;100.00;101437.91;5270417;28;20028;-82
2021/10/11 09:52:41;;;;;;;24.55;13.73;;;;;;;14.05;100.00;101438.16;5266521;28;20265;-81
2021/10/11 09:55:14;;;;;;;26.23;13.77;;;;;;;13.83;100.00;101438.97;5275697;28;20028;-82
2021/10/11 09:57:45;;;;;;;26.83;13.93;;;;;;;13.74;100.00;101449.81;5258603;28;20039;-82
2021/10/11 10:00:16;;;;;;;29.27;14.68;;;;;;;13.47;100.00;101445.47;5273050;28;20016;-81
2021/10/11 10:02:46;;;;;;;25.38;14.38;;;;;;;13.62;100.00;101445.84;5276900;28;20377;-81
2021/10/11 10:05:23;;;;;;;26.70;15.13;;;;;;;13.50;100.00;101445.38;5262517;28;20039;-81
2021/10/11 10:07:55;;;;;;;32.45;15.52;;;;;;;13.41;100.00;101445.69;5273802;28;20335;-82
2021/10/11 10:10:27;;;;;;;29.35;16.55;;;;;;;13.39;100.00;101455.41;5275046;28;20040;-81
2021/10/11 10:12:58;;;;;;;29.20;16.88;;;;;;;13.62;100.00;101445.84;5256684;28;20028;-82
2021/10/11 10:15:32;;;;;;;26.40;15.85;;;;;;;13.67;100.00;101443.91;5273719;28;20105;-82
2021/10/11 10:18:06;;;;;;;27.33;15.95;;;;;;;13.78;100.00;101443.53;5256970;28;20985;-82
2021/10/11 10:20:51;;;;;;;26.70;16.35;;;;;;;13.68;100.00;101442.13;5259648;28;20030;-82
2021/10/11 10:23:31;;;;;;;27.25;15.20;;;;;;;13.85;100.00;101440.63;5273490;28;20030;-82
2021/10/11 10:26:06;;;;;;;31.13;15.18;;;;;;;13.88;100.00;101437.91;5253096;28;20027;-82
2021/10/11 10:29:00;;;;;;;29.17;13.90;;;;;;;14.02;100.00;101434.78;5254186;28;20028;-82
2021/10/11 10:31:36;;;;;;;22.75;13.38;;;;;;;14.27;100.00;101428.59;5257707;28;20637;-82
2021/10/11 10:34:19;;;;;;;22.83;12.65;;;;;;;14.34;99.57;101432.72;5252740;28;20024;-81
2021/10/11 10:37:01;;;;;;;24.98;11.52;;;;;;;14.24;100.00;101423.47;5256349;28;20031;-82
2021/10/11 10:39:39;;;;;;;22.55;11.85;;;;;;;14.73;99.48;101422.47;5253396;28;20047;-81
2021/10/11 10:42:22;;;;;;;21.65;12.23;;;;;;;14.91;98.07;101415.56;5253691;28;20552;-82
2021/10/11 10:44:54;;;;;;;28.05;15.32;;;;;;;15.07;96.33;101416.66;5250150;28;20055;-82
2021/10/11 10:47:36;;;;;;;26.48;13.93;;;;;;;14.88;95.91;101415.66;5249110;28;20542;-81
2021/10/11 10:50:16;;;;;;;19.05;11.27;;;;;;;14.79;96.59;101406.44;5266604;28;20275;-81
2021/10/11 10:52:48;;;;;;;20.05;10.77;;;;;;;14.74;97.31;101400.50;5245368;28;20062;-82
2021/10/11 10:55:19;;;;;;;17.70;10.77;;;;;;;14.73;97.23;101394.38;5255171;28;20020;-82
2021/10/11 10:58:03;;;;;;;19.50;10.68;;;;;;;14.81;98.78;101386.16;5256597;28;20559;-81
2021/10/11 11:00:34;;;;;;;18.83;9.98;;;;;;;14.82;96.39;101383.50;5252532;28;20031;-81
2021/10/11 11:03:09;;;;;;;18.15;9.85;;;;;;;14.73;97.18;101386.47;5266238;28;20102;-82
2021/10/11 11:05:42;;;;;;;20.55;8.90;;;;;;;14.55;96.80;101391.59;5272501;28;20051;-81
2021/10/11 11:08:15;;;;;;;12.45;6.93;;;;;;;14.39;96.01;101393.13;5271812;28;20055;-82
2021/10/11 11:10:45;;;;;;;16.55;7.13;;;;;;;14.06;97.37;101389.94;5264982;28;20032;-81
2021/10/11 11:13:16;;;;;;;18.55;7.82;;;;;;;13.92;100.00;101392.19;5270184;28;20052;-81
2021/10/11 11:15:50;;;;;;;14.00;8.75;;;;;;;13.93;100.00;101391.28;5272546;28;20016;-81
2021/10/11 11:18:25;;;;;;;14.40;7.65;;;;;;;13.81;100.00;101393.50;5257237;28;20020;-81
2021/10/11 11:20:56;;;;;;;17.08;7.78;;;;;;;13.61;100.00;101395.97;5270183;28;20020;-81
2021/10/11 11:23:34;;;;;;;14.82;8.00;;;;;;;13.58;100.00;101393.47;5257957;28;20032;-81
2021/10/11 11:26:05;;;;;;;14.70;8.90;;;;;;;13.66;100.00;101392.28;5280982;28;20024;-81
2021/10/11 11:28:36;;;;;;;16.70;8.63;;;;;;;13.93;100.00;101388.66;5258334;28;20020;-81
2021/10/11 11:31:10;;;;;;;18.80;9.57;;;;;;;14.23;100.00;101391.97;5278410;28;20024;-81